Time;durP1;ratioP1;P1;durP2;ratioP2;P2;SDS_P1;SDS_P2;PMS_P1;PMS_P2;Temp;Humidity;BMP_temperature;BMP_pressure;BME280_temperature;BME280_humidity;BME280_pressure;Samples;Min_cycle;Max_cycle;Signal;HPM_P1;HPM_P2
2023/12/19 00:00:11;;;;;;;10.90;8.27;;;5.00;75.30;3.20;97495.00;;;;4974840;28;20670;-90
2023/12/19 00:02:39;;;;;;;11.17;8.40;;;5.00;75.50;3.20;97509.00;;;;4974491;28;20219;-89
2023/12/19 00:05:09;;;;;;;11.23;8.20;;;5.10;75.80;3.20;97512.00;;;;4972515;28;20230;-89
2023/12/19 00:07:36;;;;;;;11.03;8.10;;;5.00;75.80;3.30;97505.00;;;;4973222;28;20196;-89
2023/12/19 00:10:04;;;;;;;11.83;9.20;;;5.00;75.70;3.30;97502.00;;;;4974078;28;20705;-89
2023/12/19 00:12:31;;;;;;;12.60;9.77;;;5.00;75.80;3.30;97520.00;;;;4968762;28;20254;-89
2023/12/19 00:14:59;;;;;;;12.73;9.33;;;5.00;75.90;3.20;97524.00;;;;4973510;28;20254;-89
2023/12/19 00:17:27;;;;;;;11.20;9.33;;;5.00;75.90;3.20;97533.00;;;;4983560;28;20289;-89
2023/12/19 00:19:56;;;;;;;11.23;8.83;;;5.10;76.00;3.20;97533.00;;;;4994725;28;20238;-89
2023/12/19 00:22:23;;;;;;;11.03;8.50;;;5.00;76.00;3.20;97536.00;;;;4993454;28;20206;-89
2023/12/19 00:24:50;;;;;;;12.97;9.03;;;5.10;75.90;3.20;97522.00;;;;4974912;28;20219;-89
2023/12/19 00:27:18;;;;;;;12.83;8.17;;;5.10;75.90;3.20;97514.00;;;;4975038;28;20685;-89
2023/12/19 00:29:45;;;;;;;11.30;8.67;;;5.00;75.60;3.20;97515.00;;;;4974927;28;20637;-89
2023/12/19 00:32:12;;;;;;;11.83;8.53;;;5.00;75.50;3.20;97517.00;;;;4974596;28;20246;-90
2023/12/19 00:34:40;;;;;;;10.67;8.67;;;5.00;75.50;3.20;97518.00;;;;4974900;28;20274;-90
2023/12/19 00:37:08;;;;;;;11.40;8.00;;;5.00;75.40;3.20;97500.00;;;;4975640;28;20230;-89
2023/12/19 00:39:37;;;;;;;11.60;8.57;;;5.00;75.30;3.20;97499.00;;;;4974826;28;20231;-89
2023/12/19 00:42:05;;;;;;;12.60;8.47;;;5.00;75.10;3.20;97500.00;;;;4974344;28;20199;-89
2023/12/19 00:44:36;;;;;;;11.83;8.70;;;5.00;75.10;3.10;97510.00;;;;4974612;28;20231;-88
2023/12/19 00:47:03;;;;;;;9.83;8.60;;;5.00;75.20;3.20;97517.00;;;;4974129;28;20195;-89
2023/12/19 00:49:30;;;;;;;11.50;9.37;;;4.90;75.30;3.10;97530.00;;;;4974583;28;20594;-89
2023/12/19 00:52:01;;;;;;;10.97;8.93;;;5.00;75.50;3.10;97547.00;;;;4974565;28;20237;-89
2023/12/19 00:54:29;;;;;;;13.17;8.93;;;4.90;75.30;3.00;97544.00;;;;4974714;28;20187;-90
2023/12/19 00:56:56;;;;;;;10.33;7.90;;;4.90;75.40;3.00;97542.00;;;;4974087;28;20646;-89
2023/12/19 00:59:24;;;;;;;14.17;9.43;;;4.90;75.60;3.00;97537.00;;;;4973897;28;20254;-89
2023/12/19 01:01:51;;;;;;;11.80;8.30;;;4.90;75.80;3.00;97530.00;;;;4973555;28;20674;-89
2023/12/19 01:04:19;;;;;;;8.83;7.93;;;4.90;76.40;3.00;97529.00;;;;4973311;28;20234;-89
2023/12/19 01:06:46;;;;;;;10.17;8.13;;;4.90;75.80;3.00;97526.00;;;;4973998;28;20227;-89
2023/12/19 01:09:15;;;;;;;10.90;8.23;;;4.90;75.80;3.00;97522.00;;;;4978881;28;20262;-89
2023/12/19 01:11:42;;;;;;;12.10;8.30;;;4.80;75.70;3.00;97514.00;;;;4977322;28;20191;-89
2023/12/19 01:14:09;;;;;;;11.70;8.30;;;4.80;75.50;3.00;97495.00;;;;4974634;28;20199;-88
2023/12/19 01:16:36;;;;;;;10.23;8.20;;;4.80;75.60;3.10;97516.00;;;;4974731;28;20215;-89
2023/12/19 01:19:06;;;;;;;10.07;8.10;;;4.90;75.80;3.10;97512.00;;;;4974219;28;20203;-89
2023/12/19 01:21:34;;;;;;;13.10;8.03;;;4.90;75.90;3.10;97512.00;;;;4974294;28;20199;-89
2023/12/19 01:24:01;;;;;;;10.83;7.97;;;4.90;75.80;3.10;97502.00;;;;4974756;28;20203;-89
2023/12/19 01:26:30;;;;;;;8.27;7.20;;;4.90;75.80;3.10;97513.00;;;;4974043;28;20246;-89
2023/12/19 01:28:58;;;;;;;9.37;7.50;;;5.70;76.30;3.10;97509.00;;;;4974507;28;20570;-89
2023/12/19 01:31:26;;;;;;;9.43;7.53;;;4.90;75.70;3.10;97521.00;;;;4974426;28;20227;-89
2023/12/19 01:33:53;;;;;;;10.10;8.10;;;4.90;75.40;3.10;97524.00;;;;4976448;28;20250;-89
2023/12/19 01:36:20;;;;;;;11.23;7.70;;;4.90;75.50;3.10;97531.00;;;;4993658;28;20216;-89
2023/12/19 01:38:47;;;;;;;10.97;7.50;;;4.90;75.60;3.10;97515.00;;;;4993197;28;20236;-90
2023/12/19 01:41:15;;;;;;;9.33;7.00;;;4.90;75.50;3.10;97521.00;;;;4993599;28;20237;-89
2023/12/19 01:43:44;;;;;;;10.57;7.60;;;4.80;75.20;3.10;97521.00;;;;4993487;28;20211;-89
2023/12/19 01:46:16;;;;;;;9.00;7.23;;;4.90;75.20;3.10;97513.00;;;;4990289;28;20253;-89
2023/12/19 01:48:44;;;;;;;9.90;7.70;;;4.90;75.20;3.00;97501.00;;;;4990119;28;20246;-89
2023/12/19 01:51:12;;;;;;;11.37;8.03;;;4.80;75.00;3.00;97501.00;;;;4974019;28;20208;-89
2023/12/19 01:53:47;;;;;;;9.73;7.17;;;4.90;75.00;3.00;97501.00;;;;4972712;28;20231;-89
2023/12/19 01:56:18;;;;;;;10.53;7.73;;;4.80;74.90;3.00;97488.00;;;;4972062;28;20605;-88
2023/12/19 01:58:47;;;;;;;9.13;7.10;;;4.80;74.80;3.00;97497.00;;;;4975021;28;20679;-88
2023/12/19 02:01:18;;;;;;;8.27;6.90;;;4.80;74.80;2.90;97482.00;;;;4976813;28;20231;-88
2023/12/19 02:03:47;;;;;;;9.57;7.77;;;4.80;74.90;2.90;97478.00;;;;4976476;28;20247;-89
2023/12/19 02:06:18;;;;;;;11.53;7.83;;;4.80;74.80;2.90;97479.00;;;;4976248;28;20653;-88
2023/12/19 02:08:45;;;;;;;11.13;7.10;;;4.70;74.80;2.90;97483.00;;;;4976555;28;20188;-90
2023/12/19 02:11:15;;;;;;;9.43;7.30;;;4.70;74.80;2.90;97475.00;;;;4978589;28;20250;-88
2023/12/19 02:13:44;;;;;;;8.00;6.37;;;4.70;75.00;2.90;97477.00;;;;4995991;28;20288;-88
2023/12/19 02:16:13;;;;;;;8.40;7.00;;;4.70;75.10;2.90;97481.00;;;;4995278;28;20246;-89
2023/12/19 02:18:40;;;;;;;7.87;6.53;;;4.60;75.10;2.90;97477.00;;;;4996163;28;20202;-89
2023/12/19 02:21:07;;;;;;;7.57;6.07;;;4.70;75.30;2.90;97463.00;;;;4996893;28;20209;-89
2023/12/19 02:23:36;;;;;;;9.77;6.43;;;4.70;75.10;2.80;97461.00;;;;4997004;28;20289;-88
2023/12/19 02:26:03;;;;;;;8.03;6.93;;;5.30;75.40;2.90;97469.00;;;;4985939;28;20246;-88
2023/12/19 02:28:30;;;;;;;7.00;6.30;;;4.70;75.10;2.90;97476.00;;;;4976032;28;20238;-88
2023/12/19 02:30:58;;;;;;;7.77;6.10;;;4.80;75.20;2.90;97467.00;;;;4975932;28;20293;-89
2023/12/19 02:33:25;;;;;;;7.63;6.00;;;4.70;75.20;2.90;97460.00;;;;4976182;28;20703;-89
2023/12/19 02:35:52;;;;;;;7.57;6.00;;;4.70;75.20;2.90;97462.00;;;;4977664;28;20223;-89
2023/12/19 02:38:19;;;;;;;7.20;6.50;;;4.70;75.10;2.90;97480.00;;;;4977343;28;20597;-89
2023/12/19 02:40:48;;;;;;;8.47;6.70;;;4.70;75.10;2.80;97477.00;;;;4976840;28;20207;-89
2023/12/19 02:43:15;;;;;;;8.57;6.63;;;4.70;75.80;2.90;97481.00;;;;4984016;28;20223;-88
2023/12/19 02:45:42;;;;;;;8.93;6.57;;;5.30;75.50;2.90;97481.00;;;;4976161;28;20277;-89
2023/12/19 02:48:09;;;;;;;7.03;6.30;;;4.70;75.10;2.80;97490.00;;;;4976148;28;20667;-88
2023/12/19 02:50:36;;;;;;;8.63;6.80;;;4.70;75.00;2.80;97495.00;;;;4975038;28;20227;-88
2023/12/19 02:53:04;;;;;;;6.57;5.87;;;4.60;74.90;2.80;97495.00;;;;4974494;28;20242;-88
2023/12/19 02:55:31;;;;;;;7.07;6.33;;;4.60;74.80;2.80;97502.00;;;;4981654;28;20265;-88
2023/12/19 02:57:59;;;;;;;7.87;6.73;;;4.60;74.70;2.80;97479.00;;;;4996486;28;20239;-88
2023/12/19 03:00:27;;;;;;;8.03;6.23;;;4.60;75.30;2.70;97486.00;;;;4986001;28;20238;-89
2023/12/19 03:02:58;;;;;;;8.63;6.80;;;4.60;74.50;2.70;97467.00;;;;4977337;28;20223;-89
2023/12/19 03:05:25;;;;;;;11.00;8.17;;;4.60;75.10;2.70;97462.00;;;;4978135;28;20223;-89
2023/12/19 03:07:53;;;;;;;8.80;7.27;;;4.50;74.30;2.60;97450.00;;;;4978482;28;20254;-88
2023/12/19 03:10:20;;;;;;;8.17;7.37;;;4.50;74.40;2.60;97440.00;;;;4977974;28;20294;-88
2023/12/19 03:12:47;;;;;;;9.07;6.93;;;4.50;74.50;2.60;97425.00;;;;4978298;28;20206;-89
2023/12/19 03:15:16;;;;;;;8.83;7.20;;;4.40;74.60;2.50;97407.00;;;;4978132;28;20255;-88
2023/12/19 03:17:43;;;;;;;9.90;7.40;;;4.40;74.60;2.50;97384.00;;;;4977194;28;20683;-89
2023/12/19 03:20:11;;;;;;;8.47;7.10;;;4.40;74.70;2.50;97398.00;;;;4976535;28;20679;-89
2023/12/19 03:22:38;;;;;;;10.90;7.27;;;4.40;74.90;2.50;97397.00;;;;4992187;28;20241;-89
2023/12/19 03:25:06;;;;;;;8.80;7.33;;;5.10;75.70;2.50;97410.00;;;;4992034;28;20231;-89
2023/12/19 03:27:33;;;;;;;7.53;6.27;;;4.40;75.50;2.50;97400.00;;;;4975622;28;20255;-88
2023/12/19 03:30:00;;;;;;;9.30;6.63;;;4.40;75.70;2.60;97397.00;;;;4981113;28;20231;-89
2023/12/19 03:32:29;;;;;;;7.03;6.30;;;4.60;75.80;2.60;97392.00;;;;4976623;28;20685;-89
2023/12/19 03:34:56;;;;;;;10.90;7.07;;;4.50;75.70;2.60;97389.00;;;;4976762;28;20227;-88
2023/12/19 03:37:23;;;;;;;7.70;6.50;;;4.40;75.60;2.60;97379.00;;;;4973731;28;20231;-89
2023/12/19 03:39:51;;;;;;;6.87;6.20;;;4.30;75.50;2.60;97387.00;;;;4976453;28;20270;-89
2023/12/19 03:42:18;;;;;;;8.57;6.73;;;4.40;75.60;2.60;97383.00;;;;4980298;28;20241;-88
2023/12/19 03:44:45;;;;;;;7.50;6.40;;;4.40;75.60;2.60;97380.00;;;;4983490;28;20234;-89
2023/12/19 03:47:14;;;;;;;8.97;7.03;;;4.40;75.60;2.60;97377.00;;;;4973487;28;20439;-89
2023/12/19 03:49:42;;;;;;;9.07;6.77;;;4.40;75.50;2.60;97387.00;;;;4989663;28;20195;-89
2023/12/19 03:52:10;;;;;;;8.23;6.23;;;4.50;75.40;2.60;97392.00;;;;4980639;28;20199;-89
2023/12/19 03:54:37;;;;;;;8.17;6.73;;;4.50;75.30;2.60;97395.00;;;;4973074;28;20724;-89
2023/12/19 03:57:05;;;;;;;9.50;6.83;;;4.60;75.30;2.60;97408.00;;;;4973223;28;20199;-88
2023/12/19 03:59:32;;;;;;;8.73;7.00;;;4.40;75.20;2.50;97409.00;;;;4973182;28;20196;-89
2023/12/19 04:01:59;;;;;;;7.40;6.47;;;4.40;75.10;2.50;97408.00;;;;4975512;28;20238;-89
2023/12/19 04:04:26;;;;;;;8.23;6.47;;;4.40;75.10;2.50;97401.00;;;;4976466;28;20204;-89
2023/12/19 04:06:55;;;;;;;7.50;6.40;;;4.40;75.20;2.50;97408.00;;;;4989239;28;20202;-89
2023/12/19 04:09:23;;;;;;;7.83;6.77;;;4.40;75.10;2.50;97405.00;;;;4976539;28;20234;-88
2023/12/19 04:11:50;;;;;;;8.47;6.60;;;4.70;75.20;2.50;97403.00;;;;4977143;28;20510;-89
2023/12/19 04:14:17;;;;;;;7.60;6.37;;;4.40;75.10;2.50;97398.00;;;;4978424;28;20207;-88
2023/12/19 04:16:44;;;;;;;7.47;6.37;;;4.40;74.90;2.50;97389.00;;;;4982648;28;20254;-88
2023/12/19 04:19:12;;;;;;;7.77;6.83;;;4.40;74.80;2.50;97395.00;;;;4973382;28;20502;-89
2023/12/19 04:21:42;;;;;;;6.90;6.20;;;4.40;74.80;2.50;97396.00;;;;4972459;28;20849;-89
2023/12/19 04:24:11;;;;;;;9.73;6.17;;;4.30;74.80;2.50;97394.00;;;;4965602;28;20191;-89
2023/12/19 04:26:38;;;;;;;9.13;7.27;;;4.30;75.00;2.50;97395.00;;;;4972962;28;20210;-88
2023/12/19 04:29:06;;;;;;;9.43;6.00;;;4.40;75.20;2.50;97383.00;;;;4971816;28;20208;-88
2023/12/19 04:31:33;;;;;;;6.67;6.00;;;4.30;75.10;2.50;97378.00;;;;4973692;28;20878;-89
2023/12/19 04:34:01;;;;;;;8.87;6.77;;;4.30;74.90;2.50;97369.00;;;;4969751;28;20210;-88
2023/12/19 04:36:30;;;;;;;9.30;6.83;;;4.30;74.80;2.50;97357.00;;;;4975264;28;20219;-89
2023/12/19 04:38:58;;;;;;;7.87;6.73;;;4.30;74.80;2.40;97358.00;;;;4974940;28;20498;-88
2023/12/19 04:41:26;;;;;;;8.60;6.53;;;4.40;75.00;2.50;97355.00;;;;4975232;28;20246;-88
2023/12/19 04:43:53;;;;;;;8.17;6.77;;;4.30;75.00;2.50;97354.00;;;;4991972;28;20270;-89
2023/12/19 04:46:21;;;;;;;11.13;6.20;;;4.30;75.00;2.50;97356.00;;;;4980983;28;20967;-89
2023/12/19 04:48:48;;;;;;;9.47;6.70;;;4.30;75.10;2.50;97349.00;;;;4976086;28;20714;-89
2023/12/19 04:51:18;;;;;;;7.10;6.40;;;4.30;74.90;2.50;97347.00;;;;4994703;28;20268;-89
2023/12/19 04:53:46;;;;;;;7.40;6.43;;;4.30;74.90;2.50;97354.00;;;;4977436;28;20203;-89
2023/12/19 04:56:13;;;;;;;8.07;7.13;;;4.30;75.00;2.40;97355.00;;;;4974763;28;20231;-89
2023/12/19 04:58:43;;;;;;;8.37;6.57;;;4.30;75.00;2.40;97353.00;;;;4979368;28;20655;-88
2023/12/19 05:01:11;;;;;;;7.40;6.10;;;4.30;75.00;2.40;97347.00;;;;4974394;28;20227;-89
2023/12/19 05:03:39;;;;;;;8.50;6.27;;;4.20;75.80;2.40;97338.00;;;;4974551;28;20203;-90
2023/12/19 05:06:08;;;;;;;8.17;6.53;;;4.30;75.00;2.40;97338.00;;;;4962105;28;20470;-88
2023/12/19 05:08:35;;;;;;;9.20;6.33;;;4.30;74.70;2.40;97343.00;;;;4978190;28;20674;-89
2023/12/19 05:11:03;;;;;;;7.37;6.07;;;4.30;74.50;2.40;97329.00;;;;4974552;28;20278;-89
2023/12/19 05:13:30;;;;;;;9.83;6.63;;;5.10;74.80;2.30;97329.00;;;;4974160;28;20290;-89
2023/12/19 05:16:10;;;;;;;8.20;6.17;;;4.20;74.20;2.30;97327.00;;;;4973619;28;20250;-89
2023/12/19 05:18:37;;;;;;;8.23;6.37;;;4.20;74.40;2.30;97323.00;;;;4976750;28;20290;-88
2023/12/19 05:21:05;;;;;;;7.90;6.43;;;4.20;74.50;2.30;97323.00;;;;4985151;28;20257;-89
2023/12/19 05:23:32;;;;;;;7.93;6.60;;;4.20;74.50;2.30;97320.00;;;;4977941;28;20259;-89
2023/12/19 05:26:01;;;;;;;10.93;7.10;;;4.10;74.40;2.30;97321.00;;;;4982692;28;20648;-88
2023/12/19 05:28:28;;;;;;;9.23;6.40;;;4.20;74.60;2.30;97311.00;;;;4974119;28;20234;-89
2023/12/19 05:30:56;;;;;;;12.13;7.17;;;4.20;74.70;2.30;97318.00;;;;4973833;28;20227;-88
2023/12/19 05:33:25;;;;;;;7.57;6.23;;;4.20;74.80;2.30;97323.00;;;;4976231;28;20235;-88
2023/12/19 05:35:52;;;;;;;9.77;7.23;;;4.20;74.80;2.30;97322.00;;;;4976253;28;20234;-89
2023/12/19 05:38:21;;;;;;;7.73;6.50;;;4.10;74.70;2.30;97319.00;;;;4958412;29;20204;-88
2023/12/19 05:40:51;;;;;;;8.20;6.60;;;4.10;74.60;2.20;97312.00;;;;4958432;29;20238;-88
2023/12/19 05:43:19;;;;;;;7.67;6.40;;;4.10;74.30;2.20;97314.00;;;;4968957;28;20625;-89
2023/12/19 05:45:46;;;;;;;7.27;6.50;;;4.20;74.30;2.20;97328.00;;;;4985656;28;20656;-89
2023/12/19 05:48:13;;;;;;;10.30;7.10;;;4.10;74.50;2.20;97327.00;;;;4978478;28;20235;-88
2023/12/19 05:50:42;;;;;;;9.57;7.13;;;4.10;74.60;2.20;97308.00;;;;4977995;28;20299;-90
2023/12/19 05:53:09;;;;;;;10.17;7.50;;;5.20;74.90;2.20;97320.00;;;;4978556;28;20282;-89
2023/12/19 05:55:36;;;;;;;11.90;8.30;;;4.10;74.20;2.10;97331.00;;;;4988358;28;20242;-89
2023/12/19 05:58:04;;;;;;;8.77;7.03;;;4.00;74.30;2.20;97331.00;;;;4977848;28;20294;-88
2023/12/19 06:00:31;;;;;;;9.97;7.77;;;4.00;74.40;2.10;97344.00;;;;4984140;28;20203;-90
2023/12/19 06:02:58;;;;;;;8.80;6.60;;;4.00;74.60;2.10;97348.00;;;;4996528;28;20434;-89
2023/12/19 06:05:25;;;;;;;7.93;6.40;;;4.00;74.50;2.10;97337.00;;;;4982838;28;20215;-88
2023/12/19 06:07:54;;;;;;;8.13;5.83;;;4.20;74.70;2.10;97341.00;;;;4977628;28;20300;-88
2023/12/19 06:10:21;;;;;;;7.73;5.93;;;4.00;74.50;2.10;97338.00;;;;4977853;28;20192;-89
2023/12/19 06:12:49;;;;;;;8.00;6.20;;;4.00;74.70;2.10;97327.00;;;;4988928;28;20237;-89
2023/12/19 06:15:16;;;;;;;9.10;6.73;;;3.90;74.70;2.10;97343.00;;;;4989416;28;20274;-88
2023/12/19 06:17:45;;;;;;;8.03;6.60;;;4.00;75.50;2.10;97341.00;;;;4985815;28;20289;-85
2023/12/19 06:20:13;;;;;;;7.07;5.77;;;4.00;74.70;2.10;97338.00;;;;4978097;28;20266;-83
2023/12/19 06:22:41;;;;;;;7.30;6.33;;;4.00;74.60;2.10;97336.00;;;;4976489;28;20521;-84
2023/12/19 06:25:10;;;;;;;8.70;6.53;;;4.00;74.80;2.10;97329.00;;;;4977578;28;21010;-84
2023/12/19 06:27:37;;;;;;;7.30;5.97;;;4.00;74.70;2.20;97327.00;;;;4976803;28;20235;-83
2023/12/19 06:30:08;;;;;;;7.03;5.87;;;4.30;74.90;2.20;97315.00;;;;4983347;28;20520;-83
2023/12/19 06:32:36;;;;;;;8.33;5.90;;;4.10;74.70;2.20;97300.00;;;;4984146;28;20819;-84
2023/12/19 06:35:07;;;;;;;6.73;5.90;;;4.20;74.40;2.20;97294.00;;;;4983095;28;20223;-84
2023/12/19 06:37:38;;;;;;;8.60;5.90;;;4.10;74.10;2.20;97290.00;;;;4977460;28;20527;-84
2023/12/19 06:40:06;;;;;;;8.93;6.27;;;4.10;73.80;2.20;97293.00;;;;4977074;28;20242;-84
2023/12/19 06:42:34;;;;;;;7.17;5.83;;;4.10;73.80;2.20;97306.00;;;;4977338;28;20290;-84
2023/12/19 06:45:02;;;;;;;6.70;5.80;;;4.10;74.00;2.20;97300.00;;;;4979446;28;20894;-84
2023/12/19 06:47:31;;;;;;;7.43;6.00;;;4.20;74.90;2.20;97299.00;;;;4979020;28;20235;-84
2023/12/19 06:49:58;;;;;;;8.30;6.17;;;4.20;74.20;2.20;97289.00;;;;4972113;28;20237;-84
2023/12/19 06:52:25;;;;;;;7.80;6.00;;;4.20;74.30;2.20;97283.00;;;;4977339;28;20321;-83
2023/12/19 06:54:52;;;;;;;9.33;6.47;;;4.20;74.40;2.20;97289.00;;;;4980009;28;21062;-84
2023/12/19 06:57:20;;;;;;;9.70;6.63;;;4.20;74.00;2.20;97284.00;;;;4976658;28;20672;-84
2023/12/19 06:59:49;;;;;;;7.07;6.37;;;4.20;73.80;2.20;97276.00;;;;4974030;28;20242;-84
2023/12/19 07:02:16;;;;;;;7.33;5.93;;;4.20;73.90;2.20;97280.00;;;;4981135;28;20541;-83
2023/12/19 07:04:43;;;;;;;6.83;5.90;;;4.20;74.10;2.20;97278.00;;;;4976604;28;20215;-84
2023/12/19 07:07:11;;;;;;;11.53;8.10;;;4.20;74.10;2.20;97266.00;;;;4977824;28;20199;-84
2023/12/19 07:09:38;;;;;;;10.50;7.40;;;4.20;74.00;2.20;97265.00;;;;4978340;28;20195;-83
2023/12/19 07:12:06;;;;;;;11.50;7.93;;;4.20;73.90;2.20;97266.00;;;;4978030;28;20487;-84
2023/12/19 07:14:33;;;;;;;10.67;7.23;;;4.20;74.00;2.20;97272.00;;;;4967330;28;20581;-84
2023/12/19 07:17:02;;;;;;;8.53;7.60;;;4.20;74.20;2.20;97267.00;;;;4975881;28;20211;-84
2023/12/19 07:19:29;;;;;;;9.40;7.20;;;4.20;74.30;2.20;97253.00;;;;4975608;28;20482;-84
2023/12/19 07:21:57;;;;;;;12.00;8.23;;;4.20;73.80;2.20;97252.00;;;;4982919;28;20446;-84
2023/12/19 07:24:24;;;;;;;11.47;7.50;;;4.20;73.90;2.20;97261.00;;;;4976591;28;20438;-84
2023/12/19 07:26:51;;;;;;;11.90;8.70;;;4.20;74.00;2.20;97265.00;;;;4975097;28;20444;-83
2023/12/19 07:29:19;;;;;;;13.17;8.43;;;4.20;74.00;2.30;97254.00;;;;4976017;28;20226;-84
2023/12/19 07:31:47;;;;;;;11.70;8.77;;;4.20;74.90;2.30;97257.00;;;;4972243;28;20223;-84
2023/12/19 07:34:16;;;;;;;10.77;8.43;;;4.20;74.30;2.30;97261.00;;;;4974072;28;20885;-85
2023/12/19 07:36:43;;;;;;;13.27;8.50;;;4.30;74.30;2.30;97253.00;;;;4977914;28;20260;-84
2023/12/19 07:39:10;;;;;;;10.80;7.73;;;4.30;74.40;2.30;97252.00;;;;4975074;28;20487;-84
2023/12/19 07:41:39;;;;;;;12.80;7.67;;;4.30;74.30;2.30;97256.00;;;;4974796;28;20661;-82
2023/12/19 07:44:09;;;;;;;9.43;6.70;;;4.30;74.40;2.40;97249.00;;;;4983704;28;20445;-84
2023/12/19 07:46:40;;;;;;;9.57;7.20;;;4.30;74.50;2.40;97244.00;;;;4977452;28;20311;-84
2023/12/19 07:49:08;;;;;;;8.67;6.87;;;4.30;74.40;2.40;97246.00;;;;4975643;28;20190;-85
2023/12/19 07:51:36;;;;;;;10.30;7.53;;;4.30;74.30;2.40;97245.00;;;;4976011;28;20567;-84
2023/12/19 07:54:04;;;;;;;9.93;7.00;;;4.40;74.40;2.40;97260.00;;;;4984608;28;20616;-83
2023/12/19 07:56:31;;;;;;;10.33;7.10;;;4.30;74.40;2.40;97261.00;;;;4975264;28;20231;-84
2023/12/19 07:58:59;;;;;;;13.37;7.13;;;3.90;74.30;2.40;97271.00;;;;4974787;28;20294;-84
2023/12/19 08:01:27;;;;;;;8.57;6.73;;;4.40;75.20;2.50;97263.00;;;;4975459;28;20262;-84
2023/12/19 08:03:54;;;;;;;11.17;6.93;;;4.40;75.30;2.50;97262.00;;;;4976061;28;20227;-84
2023/12/19 08:06:22;;;;;;;7.37;6.60;;;4.40;74.70;2.50;97264.00;;;;4975572;28;20666;-84
2023/12/19 08:08:54;;;;;;;8.83;7.20;;;4.40;74.80;2.50;97264.00;;;;4976564;28;20655;-85
2023/12/19 08:11:23;;;;;;;10.10;6.90;;;4.50;74.90;2.60;97259.00;;;;4975842;28;20215;-85
2023/12/19 08:13:52;;;;;;;8.67;6.13;;;4.50;75.00;2.50;97247.00;;;;4975095;28;20203;-84
2023/12/19 08:16:20;;;;;;;10.13;6.70;;;4.50;74.80;2.60;97244.00;;;;4975064;28;20243;-84
2023/12/19 08:18:50;;;;;;;8.77;7.20;;;4.50;74.80;2.60;97247.00;;;;4974480;28;20226;-84
2023/12/19 08:21:18;;;;;;;7.80;6.97;;;4.50;74.90;2.60;97248.00;;;;4974731;28;20373;-84
2023/12/19 08:23:47;;;;;;;9.80;7.00;;;4.60;75.10;2.70;97258.00;;;;4973581;28;20294;-84
2023/12/19 08:26:15;;;;;;;8.77;6.40;;;4.60;75.30;2.70;97246.00;;;;4972790;28;20306;-85
2023/12/19 08:28:42;;;;;;;9.00;7.13;;;4.60;75.50;2.80;97260.00;;;;4971674;28;20699;-84
2023/12/19 08:31:10;;;;;;;9.60;7.13;;;4.60;75.50;2.80;97242.00;;;;4971492;28;20246;-85
2023/12/19 08:33:38;;;;;;;7.83;6.53;;;4.70;75.70;2.80;97235.00;;;;4973162;28;20238;-84
2023/12/19 08:36:07;;;;;;;8.63;7.07;;;4.70;75.80;2.90;97239.00;;;;4972516;28;20223;-85
2023/12/19 08:38:34;;;;;;;8.97;7.07;;;4.80;75.90;3.00;97256.00;;;;4973113;28;20655;-86
2023/12/19 08:41:01;;;;;;;7.63;6.70;;;4.80;76.00;3.00;97252.00;;;;4973904;28;20227;-86
2023/12/19 08:43:32;;;;;;;6.43;5.43;;;4.80;76.00;3.10;97248.00;;;;4973781;28;20714;-85
2023/12/19 08:45:59;;;;;;;8.77;6.20;;;4.90;76.20;3.10;97247.00;;;;4974006;28;20302;-84
2023/12/19 08:48:26;;;;;;;7.67;5.80;;;4.90;76.40;3.20;97237.00;;;;4974672;28;20207;-84
2023/12/19 08:50:54;;;;;;;8.23;6.00;;;5.00;76.70;3.30;97240.00;;;;4982260;28;20266;-84
2023/12/19 08:53:21;;;;;;;7.80;5.97;;;5.10;77.00;3.30;97237.00;;;;4975950;28;20765;-84
2023/12/19 08:55:48;;;;;;;5.83;5.33;;;5.10;77.40;3.40;97241.00;;;;4972894;28;20251;-84
2023/12/19 08:58:16;;;;;;;8.20;5.10;;;5.20;77.70;3.50;97248.00;;;;4972121;28;20201;-84
2023/12/19 09:00:44;;;;;;;6.33;5.53;;;5.20;78.10;3.60;97237.00;;;;4971789;28;20660;-84
2023/12/19 09:03:12;;;;;;;5.67;5.07;;;5.30;78.40;3.60;97233.00;;;;4977552;28;20253;-84
2023/12/19 09:05:39;;;;;;;7.80;5.93;;;5.40;78.60;3.70;97238.00;;;;4977162;28;20223;-84
2023/12/19 09:08:06;;;;;;;6.20;5.50;;;5.50;78.90;3.80;97240.00;;;;4971669;28;20295;-85
2023/12/19 09:10:34;;;;;;;9.17;6.33;;;5.50;79.00;3.90;97240.00;;;;4971484;28;20682;-84
2023/12/19 09:13:01;;;;;;;8.90;5.50;;;5.60;79.20;3.90;97231.00;;;;4973351;28;20235;-84
2023/12/19 09:15:28;;;;;;;8.37;6.30;;;5.70;79.30;4.00;97243.00;;;;4976977;28;20219;-84
2023/12/19 09:17:56;;;;;;;6.50;5.90;;;5.80;79.40;4.10;97235.00;;;;4973325;28;20239;-82
2023/12/19 09:20:24;;;;;;;7.47;5.87;;;5.80;79.40;4.20;97227.00;;;;4986138;28;20230;-83
2023/12/19 09:22:51;;;;;;;7.97;5.70;;;5.90;79.40;4.20;97236.00;;;;4977633;28;20199;-83
2023/12/19 09:25:18;;;;;;;7.60;6.13;;;5.90;79.50;4.30;97228.00;;;;4983861;28;20250;-83
2023/12/19 09:27:46;;;;;;;8.43;6.40;;;6.00;79.60;4.40;97220.00;;;;4972639;28;20231;-82
2023/12/19 09:30:15;;;;;;;8.70;5.93;;;6.10;79.70;4.40;97233.00;;;;4974819;28;20274;-83
2023/12/19 09:32:43;;;;;;;7.17;5.80;;;6.20;79.70;4.50;97223.00;;;;4980168;28;20254;-83
2023/12/19 09:35:12;;;;;;;5.50;5.00;;;6.20;79.90;4.60;97236.00;;;;4983420;28;20297;-84
2023/12/19 09:37:39;;;;;;;7.43;5.70;;;6.30;80.20;4.70;97234.00;;;;4983765;28;20674;-83
2023/12/19 09:40:13;;;;;;;7.13;6.03;;;6.40;80.60;4.90;97230.00;;;;4973911;28;20195;-83
2023/12/19 09:42:41;;;;;;;5.80;5.27;;;6.50;81.20;5.10;97234.00;;;;4978157;28;20298;-83
2023/12/19 09:45:09;;;;;;;5.93;5.30;;;6.70;81.70;5.30;97233.00;;;;4973171;28;20681;-84
2023/12/19 09:47:40;;;;;;;6.13;5.53;;;6.80;82.40;5.60;97227.00;;;;4983149;28;20238;-83
2023/12/19 09:50:14;;;;;;;5.73;4.50;;;7.00;83.10;5.80;97224.00;;;;4968176;28;20206;-83
2023/12/19 09:52:42;;;;;;;5.80;5.20;;;7.30;83.60;6.10;97234.00;;;;4972892;28;20250;-83
2023/12/19 09:55:11;;;;;;;7.63;5.40;;;7.60;84.60;6.40;97234.00;;;;4972229;28;20231;-84
2023/12/19 09:57:40;;;;;;;7.90;5.60;;;7.80;83.80;6.70;97217.00;;;;4977955;28;20271;-83
2023/12/19 10:00:12;;;;;;;5.30;4.80;;;8.10;84.00;7.00;97225.00;;;;4966992;28;20263;-83
2023/12/19 10:02:41;;;;;;;6.63;5.17;;;8.40;83.60;7.30;97227.00;;;;4986898;28;20234;-84
2023/12/19 10:05:10;;;;;;;7.70;6.40;;;8.70;83.30;7.60;97221.00;;;;4969305;28;20235;-83
2023/12/19 10:07:39;;;;;;;7.17;5.93;;;9.00;82.90;7.80;97223.00;;;;4979208;28;20203;-84
2023/12/19 10:10:11;;;;;;;5.87;5.33;;;9.30;82.50;8.10;97201.00;;;;4976666;28;20237;-84
2023/12/19 10:12:51;;;;;;;6.57;5.97;;;9.50;82.20;8.30;97206.00;;;;4975495;28;20216;-84
2023/12/19 10:15:18;;;;;;;6.60;5.17;;;9.80;80.90;8.60;97197.00;;;;4981087;28;20344;-84
2023/12/19 10:18:11;;;;;;;5.10;4.60;;;10.00;81.10;8.80;97197.00;;;;4978887;28;20360;-84
2023/12/19 10:20:38;;;;;;;5.47;4.30;;;10.30;79.30;9.00;97194.00;;;;4981556;28;20671;-84
2023/12/19 10:23:08;;;;;;;5.70;4.47;;;10.50;80.20;9.10;97177.00;;;;4976358;28;20203;-84
2023/12/19 10:25:35;;;;;;;4.20;3.80;;;10.60;79.20;9.30;97174.00;;;;4981541;28;20219;-84
2023/12/19 10:28:08;;;;;;;4.60;4.00;;;10.80;79.00;9.50;97166.00;;;;4973467;28;20663;-84
2023/12/19 10:30:36;;;;;;;4.37;3.97;;;10.90;78.00;9.60;97159.00;;;;4976040;28;20199;-84
2023/12/19 10:33:04;;;;;;;4.50;3.90;;;11.00;78.60;9.70;97156.00;;;;4978674;28;20598;-84
2023/12/19 10:35:38;;;;;;;4.60;4.03;;;11.10;77.00;9.70;97142.00;;;;4978941;28;20250;-84
2023/12/19 10:38:07;;;;;;;6.57;4.57;;;11.20;75.40;9.70;97147.00;;;;4973081;28;20286;-84
2023/12/19 10:40:34;;;;;;;3.97;3.57;;;11.20;75.10;9.70;97132.00;;;;4981591;28;20282;-84
2023/12/19 10:43:02;;;;;;;3.63;3.33;;;11.10;74.60;9.60;97127.00;;;;4982660;28;20219;-84
2023/12/19 10:45:30;;;;;;;3.50;3.20;;;11.10;74.00;9.60;97130.00;;;;4969008;28;20281;-84
2023/12/19 10:48:06;;;;;;;4.83;3.17;;;11.10;73.50;9.50;97133.00;;;;4979636;28;20203;-84
2023/12/19 10:50:33;;;;;;;3.63;3.33;;;11.00;72.40;9.50;97118.00;;;;4974008;28;20249;-84
2023/12/19 10:53:04;;;;;;;3.37;3.07;;;11.00;73.10;9.40;97106.00;;;;4974842;28;20253;-85
2023/12/19 10:55:44;;;;;;;4.30;3.33;;;11.00;73.00;9.40;97105.00;;;;4974952;28;20668;-84
2023/12/19 10:58:19;;;;;;;3.87;3.57;;;10.90;72.60;9.30;97108.00;;;;4981497;28;20755;-85
2023/12/19 11:00:50;;;;;;;4.27;3.37;;;10.90;73.10;9.30;97090.00;;;;4976013;28;20290;-84
2023/12/19 11:03:27;;;;;;;3.50;3.20;;;10.80;73.10;9.20;97078.00;;;;4976283;28;20199;-84
2023/12/19 11:05:57;;;;;;;4.63;3.23;;;10.70;72.80;9.10;97069.00;;;;4977278;28;20257;-85
2023/12/19 11:08:29;;;;;;;3.77;3.47;;;10.70;73.00;9.10;97057.00;;;;4978125;28;20286;-85
2023/12/19 11:11:05;;;;;;;3.37;3.07;;;10.70;73.00;9.10;97040.00;;;;4980294;28;20294;-85